Airfield :
LOGIN :

Register | Disclaimer

   EN    FR    IT 

 










Legend :    VFR   Marginal VFR   IFR   Intensive IFR   Very Intensive IFR
Visi :
Ceiling :
>= 8 km
>= 3000ft
5 to 8 km
1000 to 3000 ft
1500m to 5 km
500 to 1000 ft
800 to 1500m
200 to 500 ft
< 800m
< 200 ft
Symbols :   Thunderstorms  Fog  Heavy snow  Heavy precipitations  Wind > 20 kt
SIGMETs :     Misc.  Thunderstorms  Icing  Turbulence  Mountain Waves  Volcanic Ashes






- Airport Elevation : 545 ft
- IATA code : PZY


LZPP - Piešťany

CURRENT METAR :
  • 260030Z AUTO 29003KT 250V350 9999 18/17 Q1012

EXPIRED METARs :
  • 260000Z AUTO 32005KT 9999 -RA 18/17 Q1012 RERA
  • 252330Z AUTO 35006KT 310V020 9999 -RA 18/17 Q1012
  • 252300Z AUTO 04004KT 360V070 9999 -RA 19/17 Q1011
  • 252230Z AUTO 36008KT 320V030 9999 19/17 Q1011
  • 252200Z AUTO 02010KT 9999 -RA FEW022/// BKN043/// 19/17 Q1012

TAF AMD TAF LZPP
Valid from the 25 at 19:00 until the 26 at 03:00 UTC


251932Z 2519/2603 03009KT 9999 FEW040
TEMPO 2519/2523 VRB15G25KT -TSRA SCT020CB BKN040
PROB40
TEMPO 2519/2522 3000 TSRA



MET'MAP, your aeronautical weather chart ! - Copyright ORBIFLY December 2007 - Disclaimer

ORBIFLY MET'MAP TEAM :

Programming & Development : Alexandra Zaïnal
Concept & original design : Baudouin d'Aumeries
Assistance for programming : Marc-Olivier Méhu
Technical & hardware support : Manuel Goepfert

Contact : metmap@orbifly.com




SOURCES & CREDITS :

   NOAA